sensor_id;sensor_type;location;lat;lon;timestamp;pressure;altitude;pressure_sealevel;temperature
48894;BMP280;34710;35.798;139.446;2023-03-15T00:01:47;101905.67;;;17.98
48894;BMP280;34710;35.798;139.446;2023-03-15T00:04:13;101906.00;;;18.58
48894;BMP280;34710;35.798;139.446;2023-03-15T00:06:37;101905.42;;;18.26
48894;BMP280;34710;35.798;139.446;2023-03-15T00:09:03;101901.23;;;18.22
48894;BMP280;34710;35.798;139.446;2023-03-15T00:11:29;101900.15;;;18.29
48894;BMP280;34710;35.798;139.446;2023-03-15T00:13:54;101897.96;;;17.76
48894;BMP280;34710;35.798;139.446;2023-03-15T00:16:20;101890.61;;;18.00
48894;BMP280;34710;35.798;139.446;2023-03-15T00:18:46;101890.51;;;17.56
48894;BMP280;34710;35.798;139.446;2023-03-15T00:21:11;101892.18;;;17.70
48894;BMP280;34710;35.798;139.446;2023-03-15T00:23:36;101885.79;;;18.37
48894;BMP280;34710;35.798;139.446;2023-03-15T00:26:01;101883.79;;;18.63
48894;BMP280;34710;35.798;139.446;2023-03-15T00:28:26;101882.75;;;17.87
48894;BMP280;34710;35.798;139.446;2023-03-15T00:31:03;101885.29;;;18.38
48894;BMP280;34710;35.798;139.446;2023-03-15T00:33:17;101879.40;;;19.31
48894;BMP280;34710;35.798;139.446;2023-03-15T00:35:44;101878.05;;;19.05
48894;BMP280;34710;35.798;139.446;2023-03-15T00:38:08;101878.90;;;19.00
48894;BMP280;34710;35.798;139.446;2023-03-15T00:40:33;101882.90;;;19.62
48894;BMP280;34710;35.798;139.446;2023-03-15T00:42:59;101880.87;;;19.99
48894;BMP280;34710;35.798;139.446;2023-03-15T00:45:24;101880.95;;;19.56
48894;BMP280;34710;35.798;139.446;2023-03-15T00:47:51;101876.47;;;19.94
48894;BMP280;34710;35.798;139.446;2023-03-15T00:50:15;101875.07;;;19.21
48894;BMP280;34710;35.798;139.446;2023-03-15T00:52:40;101883.50;;;17.91
48894;BMP280;34710;35.798;139.446;2023-03-15T00:55:08;101878.48;;;18.13
48894;BMP280;34710;35.798;139.446;2023-03-15T00:57:32;101877.22;;;17.84
48894;BMP280;34710;35.798;139.446;2023-03-15T00:59:57;101873.60;;;18.24
48894;BMP280;34710;35.798;139.446;2023-03-15T01:02:22;101876.37;;;17.94
48894;BMP280;34710;35.798;139.446;2023-03-15T01:04:48;101872.34;;;18.18
48894;BMP280;34710;35.798;139.446;2023-03-15T01:07:13;101871.74;;;18.13
48894;BMP280;34710;35.798;139.446;2023-03-15T01:09:39;101866.29;;;18.00
48894;BMP280;34710;35.798;139.446;2023-03-15T01:12:04;101866.87;;;17.22
48894;BMP280;34710;35.798;139.446;2023-03-15T01:14:28;101859.94;;;18.89
48894;BMP280;34710;35.798;139.446;2023-03-15T01:16:54;101870.55;;;16.67
48894;BMP280;34710;35.798;139.446;2023-03-15T01:19:19;101861.45;;;18.05
48894;BMP280;34710;35.798;139.446;2023-03-15T01:21:45;101854.93;;;18.81
48894;BMP280;34710;35.798;139.446;2023-03-15T01:24:13;101859.16;;;18.30
48894;BMP280;34710;35.798;139.446;2023-03-15T01:26:35;101857.35;;;16.63
48894;BMP280;34710;35.798;139.446;2023-03-15T01:29:02;101848.63;;;17.53
48894;BMP280;34710;35.798;139.446;2023-03-15T01:31:28;101850.33;;;18.63
48894;BMP280;34710;35.798;139.446;2023-03-15T01:33:52;101851.26;;;18.29
48894;BMP280;34710;35.798;139.446;2023-03-15T01:36:17;101852.73;;;17.65
48894;BMP280;34710;35.798;139.446;2023-03-15T01:38:43;101855.44;;;17.28
48894;BMP280;34710;35.798;139.446;2023-03-15T01:41:10;101853.37;;;18.64
48894;BMP280;34710;35.798;139.446;2023-03-15T01:43:34;101852.69;;;19.13
48894;BMP280;34710;35.798;139.446;2023-03-15T01:48:27;101845.86;;;19.23
48894;BMP280;34710;35.798;139.446;2023-03-15T01:50:49;101842.58;;;19.42
48894;BMP280;34710;35.798;139.446;2023-03-15T01:53:16;101843.81;;;18.17
48894;BMP280;34710;35.798;139.446;2023-03-15T01:55:41;101836.42;;;19.73
48894;BMP280;34710;35.798;139.446;2023-03-15T01:58:06;101835.53;;;19.96
48894;BMP280;34710;35.798;139.446;2023-03-15T02:00:31;101825.41;;;19.91
48894;BMP280;34710;35.798;139.446;2023-03-15T02:02:59;101823.51;;;20.17
48894;BMP280;34710;35.798;139.446;2023-03-15T02:05:24;101817.01;;;19.43
48894;BMP280;34710;35.798;139.446;2023-03-15T02:07:48;101817.91;;;18.05
48894;BMP280;34710;35.798;139.446;2023-03-15T02:10:15;101817.47;;;17.87
48894;BMP280;34710;35.798;139.446;2023-03-15T02:12:42;101808.79;;;17.57
48894;BMP280;34710;35.798;139.446;2023-03-15T02:15:05;101809.02;;;18.03
48894;BMP280;34710;35.798;139.446;2023-03-15T02:17:34;101805.69;;;18.98
48894;BMP280;34710;35.798;139.446;2023-03-15T02:20:00;101805.17;;;19.58
48894;BMP280;34710;35.798;139.446;2023-03-15T02:22:27;101808.35;;;19.92
48894;BMP280;34710;35.798;139.446;2023-03-15T02:24:53;101801.18;;;20.62
48894;BMP280;34710;35.798;139.446;2023-03-15T02:27:11;101798.44;;;20.57
48894;BMP280;34710;35.798;139.446;2023-03-15T02:29:35;101794.78;;;18.03
48894;BMP280;34710;35.798;139.446;2023-03-15T02:32:02;101790.42;;;19.38
48894;BMP280;34710;35.798;139.446;2023-03-15T02:34:27;101781.59;;;20.02
48894;BMP280;34710;35.798;139.446;2023-03-15T02:36:53;101780.66;;;20.40
48894;BMP280;34710;35.798;139.446;2023-03-15T02:39:19;101777.81;;;17.03
48894;BMP280;34710;35.798;139.446;2023-03-15T02:41:46;101774.15;;;17.97
48894;BMP280;34710;35.798;139.446;2023-03-15T02:44:12;101771.07;;;18.72
48894;BMP280;34710;35.798;139.446;2023-03-15T02:46:34;101765.48;;;18.87
48894;BMP280;34710;35.798;139.446;2023-03-15T02:49:00;101758.81;;;18.42
48894;BMP280;34710;35.798;139.446;2023-03-15T02:51:26;101754.99;;;20.13
48894;BMP280;34710;35.798;139.446;2023-03-15T02:53:49;101755.34;;;20.31
48894;BMP280;34710;35.798;139.446;2023-03-15T02:56:15;101754.38;;;18.42
48894;BMP280;34710;35.798;139.446;2023-03-15T02:58:41;101751.21;;;18.56
48894;BMP280;34710;35.798;139.446;2023-03-15T03:01:05;101738.65;;;19.22
48894;BMP280;34710;35.798;139.446;2023-03-15T03:03:31;101739.04;;;17.58
48894;BMP280;34710;35.798;139.446;2023-03-15T03:05:57;101740.69;;;17.11
48894;BMP280;34710;35.798;139.446;2023-03-15T03:08:22;101730.79;;;18.29
48894;BMP280;34710;35.798;139.446;2023-03-15T03:10:48;101734.98;;;18.62
48894;BMP280;34710;35.798;139.446;2023-03-15T03:13:12;101727.94;;;19.14
48894;BMP280;34710;35.798;139.446;2023-03-15T03:15:38;101722.84;;;19.80
48894;BMP280;34710;35.798;139.446;2023-03-15T03:18:03;101716.32;;;19.46
48894;BMP280;34710;35.798;139.446;2023-03-15T03:20:29;101715.15;;;18.40
48894;BMP280;34710;35.798;139.446;2023-03-15T03:22:54;101707.85;;;19.76
48894;BMP280;34710;35.798;139.446;2023-03-15T03:25:19;101710.16;;;19.46
48894;BMP280;34710;35.798;139.446;2023-03-15T03:27:44;101703.85;;;19.46
48894;BMP280;34710;35.798;139.446;2023-03-15T03:30:12;101698.65;;;18.92
48894;BMP280;34710;35.798;139.446;2023-03-15T03:32:36;101689.96;;;18.08
48894;BMP280;34710;35.798;139.446;2023-03-15T03:35:01;101684.83;;;19.34
48894;BMP280;34710;35.798;139.446;2023-03-15T03:37:27;101683.16;;;19.71
48894;BMP280;34710;35.798;139.446;2023-03-15T03:39:52;101676.20;;;20.17
48894;BMP280;34710;35.798;139.446;2023-03-15T03:42:17;101669.47;;;20.70
48894;BMP280;34710;35.798;139.446;2023-03-15T03:44:42;101661.74;;;20.85
48894;BMP280;34710;35.798;139.446;2023-03-15T03:47:08;101655.02;;;21.45
48894;BMP280;34710;35.798;139.446;2023-03-15T03:49:34;101650.03;;;22.11
48894;BMP280;34710;35.798;139.446;2023-03-15T03:51:58;101645.42;;;22.15
48894;BMP280;34710;35.798;139.446;2023-03-15T03:54:24;101637.81;;;22.18
48894;BMP280;34710;35.798;139.446;2023-03-15T03:56:50;101651.65;;;18.50
48894;BMP280;34710;35.798;139.446;2023-03-15T03:59:15;101645.94;;;18.40
48894;BMP280;34710;35.798;139.446;2023-03-15T04:01:40;101647.18;;;17.63
48894;BMP280;34710;35.798;139.446;2023-03-15T04:04:06;101636.45;;;18.63
48894;BMP280;34710;35.798;139.446;2023-03-15T04:06:31;101630.76;;;18.24
48894;BMP280;34710;35.798;139.446;2023-03-15T04:08:56;101624.29;;;19.45
48894;BMP280;34710;35.798;139.446;2023-03-15T04:11:21;101624.27;;;17.80
48894;BMP280;34710;35.798;139.446;2023-03-15T04:13:46;101622.57;;;17.40
48894;BMP280;34710;35.798;139.446;2023-03-15T04:16:12;101618.33;;;19.11
48894;BMP280;34710;35.798;139.446;2023-03-15T04:18:38;101609.64;;;18.64
48894;BMP280;34710;35.798;139.446;2023-03-15T04:21:04;101611.02;;;18.42
48894;BMP280;34710;35.798;139.446;2023-03-15T04:23:29;101610.42;;;19.51
48894;BMP280;34710;35.798;139.446;2023-03-15T04:25:54;101605.36;;;18.49
48894;BMP280;34710;35.798;139.446;2023-03-15T04:28:20;101600.35;;;17.21
48894;BMP280;34710;35.798;139.446;2023-03-15T04:30:46;101603.12;;;17.63
48894;BMP280;34710;35.798;139.446;2023-03-15T04:33:10;101600.32;;;18.67
48894;BMP280;34710;35.798;139.446;2023-03-15T04:35:36;101594.28;;;19.23
48894;BMP280;34710;35.798;139.446;2023-03-15T04:38:01;101587.39;;;19.90
48894;BMP280;34710;35.798;139.446;2023-03-15T04:40:26;101585.98;;;20.69
48894;BMP280;34710;35.798;139.446;2023-03-15T04:42:52;101585.29;;;19.50
48894;BMP280;34710;35.798;139.446;2023-03-15T04:45:18;101589.08;;;18.79
48894;BMP280;34710;35.798;139.446;2023-03-15T04:47:43;101591.74;;;19.50
48894;BMP280;34710;35.798;139.446;2023-03-15T04:50:09;101587.36;;;19.08
48894;BMP280;34710;35.798;139.446;2023-03-15T04:52:33;101587.95;;;19.86
48894;BMP280;34710;35.798;139.446;2023-03-15T04:54:58;101583.66;;;19.10
48894;BMP280;34710;35.798;139.446;2023-03-15T04:57:24;101583.67;;;18.65
48894;BMP280;34710;35.798;139.446;2023-03-15T04:59:49;101585.18;;;18.04
48894;BMP280;34710;35.798;139.446;2023-03-15T05:02:14;101587.83;;;18.33
48894;BMP280;34710;35.798;139.446;2023-03-15T05:04:40;101584.01;;;17.37
48894;BMP280;34710;35.798;139.446;2023-03-15T05:07:07;101579.63;;;18.45
48894;BMP280;34710;35.798;139.446;2023-03-15T05:09:31;101588.27;;;18.48
48894;BMP280;34710;35.798;139.446;2023-03-15T05:11:57;101576.56;;;17.90
48894;BMP280;34710;35.798;139.446;2023-03-15T05:14:22;101574.65;;;18.60
48894;BMP280;34710;35.798;139.446;2023-03-15T05:16:47;101579.56;;;18.56
48894;BMP280;34710;35.798;139.446;2023-03-15T05:19:12;101577.07;;;19.60
48894;BMP280;34710;35.798;139.446;2023-03-15T05:21:37;101572.73;;;19.85
48894;BMP280;34710;35.798;139.446;2023-03-15T05:24:03;101576.82;;;19.70
48894;BMP280;34710;35.798;139.446;2023-03-15T05:26:28;101579.13;;;18.32
48894;BMP280;34710;35.798;139.446;2023-03-15T05:28:54;101574.82;;;18.59
48894;BMP280;34710;35.798;139.446;2023-03-15T05:31:20;101578.22;;;17.75
48894;BMP280;34710;35.798;139.446;2023-03-15T05:33:45;101569.72;;;17.72
48894;BMP280;34710;35.798;139.446;2023-03-15T05:36:10;101563.85;;;19.51
48894;BMP280;34710;35.798;139.446;2023-03-15T05:38:35;101569.01;;;17.07
48894;BMP280;34710;35.798;139.446;2023-03-15T05:41:01;101569.82;;;17.01
48894;BMP280;34710;35.798;139.446;2023-03-15T05:43:26;101569.69;;;18.79
48894;BMP280;34710;35.798;139.446;2023-03-15T05:45:52;101569.40;;;19.88
48894;BMP280;34710;35.798;139.446;2023-03-15T05:48:17;101570.05;;;19.62
48894;BMP280;34710;35.798;139.446;2023-03-15T05:50:42;101575.24;;;19.05
48894;BMP280;34710;35.798;139.446;2023-03-15T05:53:08;101580.85;;;17.70
48894;BMP280;34710;35.798;139.446;2023-03-15T05:55:34;101569.71;;;18.87
48894;BMP280;34710;35.798;139.446;2023-03-15T05:57:59;101575.65;;;17.71
48894;BMP280;34710;35.798;139.446;2023-03-15T06:00:24;101571.26;;;18.56
48894;BMP280;34710;35.798;139.446;2023-03-15T06:02:50;101572.20;;;19.71
48894;BMP280;34710;35.798;139.446;2023-03-15T06:05:15;101571.53;;;20.54
48894;BMP280;34710;35.798;139.446;2023-03-15T06:07:40;101576.63;;;18.97
48894;BMP280;34710;35.798;139.446;2023-03-15T06:10:06;101582.99;;;18.40
48894;BMP280;34710;35.798;139.446;2023-03-15T06:12:31;101581.38;;;19.04
48894;BMP280;34710;35.798;139.446;2023-03-15T06:14:56;101583.76;;;19.02
48894;BMP280;34710;35.798;139.446;2023-03-15T06:17:21;101580.30;;;19.53
48894;BMP280;34710;35.798;139.446;2023-03-15T06:19:47;101577.76;;;19.82
48894;BMP280;34710;35.798;139.446;2023-03-15T06:22:14;101575.67;;;18.42
48894;BMP280;34710;35.798;139.446;2023-03-15T06:24:38;101581.23;;;18.32
48894;BMP280;34710;35.798;139.446;2023-03-15T06:27:03;101580.48;;;19.06
48894;BMP280;34710;35.798;139.446;2023-03-15T06:29:29;101581.83;;;18.00
48894;BMP280;34710;35.798;139.446;2023-03-15T06:31:54;101580.08;;;18.20
48894;BMP280;34710;35.798;139.446;2023-03-15T06:34:19;101580.30;;;17.63
48894;BMP280;34710;35.798;139.446;2023-03-15T06:36:45;101579.22;;;17.92
48894;BMP280;34710;35.798;139.446;2023-03-15T06:39:10;101580.93;;;17.37
48894;BMP280;34710;35.798;139.446;2023-03-15T06:41:35;101577.87;;;18.20
48894;BMP280;34710;35.798;139.446;2023-03-15T06:44:01;101579.78;;;18.45
48894;BMP280;34710;35.798;139.446;2023-03-15T06:46:27;101580.46;;;17.90
48894;BMP280;34710;35.798;139.446;2023-03-15T06:48:52;101583.06;;;17.88
48894;BMP280;34710;35.798;139.446;2023-03-15T06:51:17;101591.03;;;16.42
48894;BMP280;34710;35.798;139.446;2023-03-15T06:53:43;101587.89;;;16.44
48894;BMP280;34710;35.798;139.446;2023-03-15T06:56:08;101587.17;;;16.66
48894;BMP280;34710;35.798;139.446;2023-03-15T06:58:33;101582.44;;;17.22
48894;BMP280;34710;35.798;139.446;2023-03-15T07:00:59;101585.48;;;16.89
48894;BMP280;34710;35.798;139.446;2023-03-15T07:03:24;101585.62;;;16.05
48894;BMP280;34710;35.798;139.446;2023-03-15T07:05:50;101586.60;;;16.49
48894;BMP280;34710;35.798;139.446;2023-03-15T07:08:15;101590.33;;;15.85
48894;BMP280;34710;35.798;139.446;2023-03-15T07:10:41;101592.44;;;16.58
48894;BMP280;34710;35.798;139.446;2023-03-15T07:13:06;101585.34;;;17.08
48894;BMP280;34710;35.798;139.446;2023-03-15T07:15:31;101595.55;;;16.83
48894;BMP280;34710;35.798;139.446;2023-03-15T07:17:57;101601.47;;;16.46
48894;BMP280;34710;35.798;139.446;2023-03-15T07:20:22;101607.82;;;16.78
48894;BMP280;34710;35.798;139.446;2023-03-15T07:22:47;101609.81;;;16.11
48894;BMP280;34710;35.798;139.446;2023-03-15T07:25:12;101618.24;;;15.86
48894;BMP280;34710;35.798;139.446;2023-03-15T07:27:38;101620.68;;;16.86
48894;BMP280;34710;35.798;139.446;2023-03-15T07:30:04;101622.21;;;16.03
48894;BMP280;34710;35.798;139.446;2023-03-15T07:32:29;101624.42;;;15.74
48894;BMP280;34710;35.798;139.446;2023-03-15T07:34:54;101629.50;;;16.00
48894;BMP280;34710;35.798;139.446;2023-03-15T07:37:20;101630.33;;;16.04
48894;BMP280;34710;35.798;139.446;2023-03-15T07:39:45;101636.72;;;15.37
48894;BMP280;34710;35.798;139.446;2023-03-15T07:42:11;101629.06;;;15.91
48894;BMP280;34710;35.798;139.446;2023-03-15T07:44:37;101630.76;;;15.73
48894;BMP280;34710;35.798;139.446;2023-03-15T07:47:01;101635.27;;;15.25
48894;BMP280;34710;35.798;139.446;2023-03-15T07:49:27;101638.81;;;15.18
48894;BMP280;34710;35.798;139.446;2023-03-15T07:51:52;101643.60;;;15.11
48894;BMP280;34710;35.798;139.446;2023-03-15T07:54:17;101645.52;;;15.71
48894;BMP280;34710;35.798;139.446;2023-03-15T07:56:43;101647.11;;;16.20
48894;BMP280;34710;35.798;139.446;2023-03-15T07:59:09;101650.47;;;16.35
48894;BMP280;34710;35.798;139.446;2023-03-15T08:01:34;101651.16;;;16.31
48894;BMP280;34710;35.798;139.446;2023-03-15T08:04:00;101646.90;;;16.38
48894;BMP280;34710;35.798;139.446;2023-03-15T08:06:25;101654.93;;;15.14
48894;BMP280;34710;35.798;139.446;2023-03-15T08:08:50;101658.43;;;14.77
48894;BMP280;34710;35.798;139.446;2023-03-15T08:11:16;101653.66;;;15.49
48894;BMP280;34710;35.798;139.446;2023-03-15T08:13:41;101652.01;;;15.61
48894;BMP280;34710;35.798;139.446;2023-03-15T08:16:06;101651.96;;;16.14
48894;BMP280;34710;35.798;139.446;2023-03-15T08:18:32;101655.63;;;16.17
48894;BMP280;34710;35.798;139.446;2023-03-15T08:20:58;101657.48;;;15.82
48894;BMP280;34710;35.798;139.446;2023-03-15T08:23:23;101660.83;;;14.98
48894;BMP280;34710;35.798;139.446;2023-03-15T08:25:48;101667.71;;;15.06
48894;BMP280;34710;35.798;139.446;2023-03-15T08:28:14;101667.53;;;14.32
48894;BMP280;34710;35.798;139.446;2023-03-15T08:30:39;101664.10;;;14.66
48894;BMP280;34710;35.798;139.446;2023-03-15T08:33:04;101671.25;;;14.08
48894;BMP280;34710;35.798;139.446;2023-03-15T08:35:30;101675.46;;;13.76
48894;BMP280;34710;35.798;139.446;2023-03-15T08:37:55;101674.71;;;14.47
48894;BMP280;34710;35.798;139.446;2023-03-15T08:40:21;101679.09;;;13.43
48894;BMP280;34710;35.798;139.446;2023-03-15T08:42:46;101678.10;;;14.37
48894;BMP280;34710;35.798;139.446;2023-03-15T08:45:12;101681.05;;;14.69
48894;BMP280;34710;35.798;139.446;2023-03-15T08:47:37;101685.44;;;14.56
48894;BMP280;34710;35.798;139.446;2023-03-15T08:50:03;101684.36;;;14.37
48894;BMP280;34710;35.798;139.446;2023-03-15T08:52:29;101681.75;;;13.60
48894;BMP280;34710;35.798;139.446;2023-03-15T08:54:53;101681.69;;;14.50
48894;BMP280;34710;35.798;139.446;2023-03-15T08:57:19;101679.43;;;13.93
48894;BMP280;34710;35.798;139.446;2023-03-15T08:59:44;101685.12;;;14.18
48894;BMP280;34710;35.798;139.446;2023-03-15T09:02:10;101686.95;;;14.15
48894;BMP280;34710;35.798;139.446;2023-03-15T09:04:34;101687.88;;;14.63
48894;BMP280;34710;35.798;139.446;2023-03-15T09:07:00;101688.38;;;14.91
48894;BMP280;34710;35.798;139.446;2023-03-15T09:09:27;101688.26;;;14.40
48894;BMP280;34710;35.798;139.446;2023-03-15T09:11:52;101689.46;;;14.50
48894;BMP280;34710;35.798;139.446;2023-03-15T09:14:17;101692.39;;;14.45
48894;BMP280;34710;35.798;139.446;2023-03-15T09:16:42;101693.94;;;14.25
48894;BMP280;34710;35.798;139.446;2023-03-15T09:19:08;101692.48;;;13.96
48894;BMP280;34710;35.798;139.446;2023-03-15T09:21:33;101695.17;;;14.20
48894;BMP280;34710;35.798;139.446;2023-03-15T09:23:58;101692.14;;;13.95
48894;BMP280;34710;35.798;139.446;2023-03-15T09:26:23;101691.97;;;14.31
48894;BMP280;34710;35.798;139.446;2023-03-15T09:28:49;101691.69;;;13.70
48894;BMP280;34710;35.798;139.446;2023-03-15T09:31:14;101691.62;;;14.13
48894;BMP280;34710;35.798;139.446;2023-03-15T09:33:41;101692.51;;;13.96
48894;BMP280;34710;35.798;139.446;2023-03-15T09:36:06;101697.50;;;13.95
48894;BMP280;34710;35.798;139.446;2023-03-15T09:38:31;101700.10;;;14.09
48894;BMP280;34710;35.798;139.446;2023-03-15T09:40:59;101699.93;;;14.02
48894;BMP280;34710;35.798;139.446;2023-03-15T09:43:39;101702.80;;;13.67
48894;BMP280;34710;35.798;139.446;2023-03-15T09:45:59;101707.43;;;14.19
48894;BMP280;34710;35.798;139.446;2023-03-15T09:48:17;101708.26;;;14.66
48894;BMP280;34710;35.798;139.446;2023-03-15T09:50:42;101706.43;;;14.39
48894;BMP280;34710;35.798;139.446;2023-03-15T09:53:05;101709.65;;;13.87
48894;BMP280;34710;35.798;139.446;2023-03-15T09:55:29;101714.86;;;14.39
48894;BMP280;34710;35.798;139.446;2023-03-15T09:57:57;101716.24;;;14.12
48894;BMP280;34710;35.798;139.446;2023-03-15T10:00:22;101715.69;;;14.25
48894;BMP280;34710;35.798;139.446;2023-03-15T10:02:53;101716.07;;;14.05
48894;BMP280;34710;35.798;139.446;2023-03-15T10:05:17;101719.25;;;13.53
48894;BMP280;34710;35.798;139.446;2023-03-15T10:07:36;101719.27;;;14.21
48894;BMP280;34710;35.798;139.446;2023-03-15T10:10:01;101718.61;;;14.04
48894;BMP280;34710;35.798;139.446;2023-03-15T10:12:30;101717.42;;;14.17
48894;BMP280;34710;35.798;139.446;2023-03-15T10:15:02;101715.91;;;14.02
48894;BMP280;34710;35.798;139.446;2023-03-15T10:17:23;101712.97;;;14.02
48894;BMP280;34710;35.798;139.446;2023-03-15T10:19:49;101716.30;;;13.76
48894;BMP280;34710;35.798;139.446;2023-03-15T10:22:18;101716.57;;;13.61
48894;BMP280;34710;35.798;139.446;2023-03-15T10:24:39;101719.53;;;14.45
48894;BMP280;34710;35.798;139.446;2023-03-15T10:27:12;101717.59;;;14.66
48894;BMP280;34710;35.798;139.446;2023-03-15T10:29:27;101718.09;;;14.53
48894;BMP280;34710;35.798;139.446;2023-03-15T10:31:50;101717.57;;;14.96
48894;BMP280;34710;35.798;139.446;2023-03-15T10:34:16;101725.19;;;14.95
48894;BMP280;34710;35.798;139.446;2023-03-15T10:36:46;101726.04;;;15.44
48894;BMP280;34710;35.798;139.446;2023-03-15T10:39:07;101725.93;;;15.01
48894;BMP280;34710;35.798;139.446;2023-03-15T10:41:37;101726.20;;;14.94
48894;BMP280;34710;35.798;139.446;2023-03-15T10:43:59;101733.14;;;15.55
48894;BMP280;34710;35.798;139.446;2023-03-15T10:46:25;101730.67;;;14.73
48894;BMP280;34710;35.798;139.446;2023-03-15T10:48:55;101739.47;;;15.18
48894;BMP280;34710;35.798;139.446;2023-03-15T10:51:19;101744.55;;;14.33
48894;BMP280;34710;35.798;139.446;2023-03-15T10:53:52;101744.40;;;14.80
48894;BMP280;34710;35.798;139.446;2023-03-15T10:56:08;101746.40;;;15.01
48894;BMP280;34710;35.798;139.446;2023-03-15T10:58:39;101750.59;;;15.23
48894;BMP280;34710;35.798;139.446;2023-03-15T11:01:02;101748.28;;;15.15
48894;BMP280;34710;35.798;139.446;2023-03-15T11:03:23;101748.08;;;14.99
48894;BMP280;34710;35.798;139.446;2023-03-15T11:05:47;101745.46;;;14.32
48894;BMP280;34710;35.798;139.446;2023-03-15T11:08:14;101747.15;;;14.30
48894;BMP280;34710;35.798;139.446;2023-03-15T11:10:37;101748.49;;;14.88
48894;BMP280;34710;35.798;139.446;2023-03-15T11:13:12;101750.50;;;14.53
48894;BMP280;34710;35.798;139.446;2023-03-15T11:15:28;101749.90;;;14.86
48894;BMP280;34710;35.798;139.446;2023-03-15T11:17:53;101748.41;;;14.66
48894;BMP280;34710;35.798;139.446;2023-03-15T11:20:27;101743.48;;;14.95
48894;BMP280;34710;35.798;139.446;2023-03-15T11:22:44;101743.53;;;14.85
48894;BMP280;34710;35.798;139.446;2023-03-15T11:25:14;101746.83;;;15.01
48894;BMP280;34710;35.798;139.446;2023-03-15T11:27:35;101747.94;;;15.30
48894;BMP280;34710;35.798;139.446;2023-03-15T11:30:02;101743.48;;;14.76
48894;BMP280;34710;35.798;139.446;2023-03-15T11:32:28;101743.77;;;14.82
48894;BMP280;34710;35.798;139.446;2023-03-15T11:34:56;101745.79;;;14.83
48894;BMP280;34710;35.798;139.446;2023-03-15T11:37:21;101748.34;;;14.65
48894;BMP280;34710;35.798;139.446;2023-03-15T11:39:47;101744.51;;;14.93
48894;BMP280;34710;35.798;139.446;2023-03-15T11:42:15;101745.87;;;14.56
48894;BMP280;34710;35.798;139.446;2023-03-15T11:44:39;101742.53;;;14.95
48894;BMP280;34710;35.798;139.446;2023-03-15T11:47:02;101744.07;;;14.32
48894;BMP280;34710;35.798;139.446;2023-03-15T11:49:32;101743.74;;;14.11
48894;BMP280;34710;35.798;139.446;2023-03-15T11:51:49;101747.81;;;13.98
48894;BMP280;34710;35.798;139.446;2023-03-15T11:54:16;101747.28;;;14.37
48894;BMP280;34710;35.798;139.446;2023-03-15T11:56:50;101745.08;;;14.17
48894;BMP280;34710;35.798;139.446;2023-03-15T11:59:09;101743.83;;;14.46
48894;BMP280;34710;35.798;139.446;2023-03-15T12:01:31;101741.89;;;14.10
48894;BMP280;34710;35.798;139.446;2023-03-15T12:06:33;101739.01;;;13.98
48894;BMP280;34710;35.798;139.446;2023-03-15T12:08:49;101739.31;;;14.06
48894;BMP280;34710;35.798;139.446;2023-03-15T12:11:13;101740.71;;;13.29
48894;BMP280;34710;35.798;139.446;2023-03-15T12:13:37;101736.81;;;13.86
48894;BMP280;34710;35.798;139.446;2023-03-15T12:16:06;101740.69;;;13.16
48894;BMP280;34710;35.798;139.446;2023-03-15T12:18:32;101738.06;;;13.13
48894;BMP280;34710;35.798;139.446;2023-03-15T12:21:11;101736.54;;;13.86
48894;BMP280;34710;35.798;139.446;2023-03-15T12:25:51;101739.30;;;13.36
48894;BMP280;34710;35.798;139.446;2023-03-15T12:28:19;101740.92;;;12.87
48894;BMP280;34710;35.798;139.446;2023-03-15T12:30:40;101740.59;;;13.25
48894;BMP280;34710;35.798;139.446;2023-03-15T12:33:02;101734.61;;;13.46
48894;BMP280;34710;35.798;139.446;2023-03-15T12:35:35;101735.00;;;13.80
48894;BMP280;34710;35.798;139.446;2023-03-15T12:37:53;101731.83;;;13.93
48894;BMP280;34710;35.798;139.446;2023-03-15T12:52:39;101729.49;;;14.34
48894;BMP280;34710;35.798;139.446;2023-03-15T12:54:54;101724.55;;;14.73
48894;BMP280;34710;35.798;139.446;2023-03-15T12:57:19;101724.37;;;14.07
48894;BMP280;34710;35.798;139.446;2023-03-15T12:59:49;101720.42;;;14.36
48894;BMP280;34710;35.798;139.446;2023-03-15T13:02:21;101717.29;;;14.63
48894;BMP280;34710;35.798;139.446;2023-03-15T13:04:32;101719.72;;;13.99
48894;BMP280;34710;35.798;139.446;2023-03-15T13:07:09;101718.24;;;14.33
48894;BMP280;34710;35.798;139.446;2023-03-15T13:11:54;101724.58;;;14.05
48894;BMP280;34710;35.798;139.446;2023-03-15T13:14:27;101727.09;;;13.72
48894;BMP280;34710;35.798;139.446;2023-03-15T13:16:43;101727.57;;;13.87
48894;BMP280;34710;35.798;139.446;2023-03-15T13:19:15;101724.41;;;13.64
48894;BMP280;34710;35.798;139.446;2023-03-15T13:21:34;101723.01;;;13.63
48894;BMP280;34710;35.798;139.446;2023-03-15T13:23:58;101721.00;;;13.72
48894;BMP280;34710;35.798;139.446;2023-03-15T13:26:30;101719.37;;;13.71
48894;BMP280;34710;35.798;139.446;2023-03-15T13:28:49;101719.26;;;13.69
48894;BMP280;34710;35.798;139.446;2023-03-15T13:31:16;101720.04;;;13.39
48894;BMP280;34710;35.798;139.446;2023-03-15T13:33:37;101720.77;;;13.36
48894;BMP280;34710;35.798;139.446;2023-03-15T13:36:09;101714.00;;;13.21
48894;BMP280;34710;35.798;139.446;2023-03-15T13:38:30;101715.91;;;13.36
48894;BMP280;34710;35.798;139.446;2023-03-15T13:40:54;101712.32;;;13.31
48894;BMP280;34710;35.798;139.446;2023-03-15T13:43:19;101708.06;;;13.19